sensor_id;sensor_type;location;lat;lon;timestamp;temperature;humidity
8459;DHT22;4266;48.816;9.154;2023-12-20T00:01:21;6.70;92.00
8459;DHT22;4266;48.816;9.154;2023-12-20T00:03:46;6.80;92.10
8459;DHT22;4266;48.816;9.154;2023-12-20T00:06:12;6.80;92.20
8459;DHT22;4266;48.816;9.154;2023-12-20T00:08:38;6.80;92.30
8459;DHT22;4266;48.816;9.154;2023-12-20T00:11:03;6.90;92.60
8459;DHT22;4266;48.816;9.154;2023-12-20T00:13:30;6.80;93.10
8459;DHT22;4266;48.816;9.154;2023-12-20T00:15:56;6.80;93.10
8459;DHT22;4266;48.816;9.154;2023-12-20T00:18:21;6.90;93.20
8459;DHT22;4266;48.816;9.154;2023-12-20T00:20:47;6.90;93.50
8459;DHT22;4266;48.816;9.154;2023-12-20T00:23:13;6.90;93.50
8459;DHT22;4266;48.816;9.154;2023-12-20T00:25:38;6.90;93.70
8459;DHT22;4266;48.816;9.154;2023-12-20T00:28:04;6.90;93.80
8459;DHT22;4266;48.816;9.154;2023-12-20T00:30:29;6.90;94.20
8459;DHT22;4266;48.816;9.154;2023-12-20T00:32:56;6.90;94.60
8459;DHT22;4266;48.816;9.154;2023-12-20T00:35:22;6.90;94.60
8459;DHT22;4266;48.816;9.154;2023-12-20T00:37:48;6.80;95.80
8459;DHT22;4266;48.816;9.154;2023-12-20T00:40:14;6.80;95.80
8459;DHT22;4266;48.816;9.154;2023-12-20T00:42:39;6.80;96.30
8459;DHT22;4266;48.816;9.154;2023-12-20T00:45:05;6.80;95.90
8459;DHT22;4266;48.816;9.154;2023-12-20T00:47:32;6.90;96.00
8459;DHT22;4266;48.816;9.154;2023-12-20T00:49:58;6.90;96.00
8459;DHT22;4266;48.816;9.154;2023-12-20T00:52:24;6.80;97.50
8459;DHT22;4266;48.816;9.154;2023-12-20T00:54:50;6.80;97.50
8459;DHT22;4266;48.816;9.154;2023-12-20T00:57:15;6.70;97.70
8459;DHT22;4266;48.816;9.154;2023-12-20T00:59:41;6.70;98.80
8459;DHT22;4266;48.816;9.154;2023-12-20T01:02:07;6.60;98.90
8459;DHT22;4266;48.816;9.154;2023-12-20T01:04:33;6.70;99.30
8459;DHT22;4266;48.816;9.154;2023-12-20T01:06:59;6.60;99.30
8459;DHT22;4266;48.816;9.154;2023-12-20T01:09:25;6.40;99.90
8459;DHT22;4266;48.816;9.154;2023-12-20T01:11:53;6.40;99.90
8459;DHT22;4266;48.816;9.154;2023-12-20T01:14:19;6.40;99.90
8459;DHT22;4266;48.816;9.154;2023-12-20T01:16:45;6.40;99.90
8459;DHT22;4266;48.816;9.154;2023-12-20T01:19:10;6.40;99.90
8459;DHT22;4266;48.816;9.154;2023-12-20T01:21:36;6.40;99.90
8459;DHT22;4266;48.816;9.154;2023-12-20T01:24:02;6.40;99.90
8459;DHT22;4266;48.816;9.154;2023-12-20T01:26:27;6.30;99.90
8459;DHT22;4266;48.816;9.154;2023-12-20T01:28:53;6.20;99.90
8459;DHT22;4266;48.816;9.154;2023-12-20T01:31:26;6.20;99.90
8459;DHT22;4266;48.816;9.154;2023-12-20T01:33:52;6.20;99.90
8459;DHT22;4266;48.816;9.154;2023-12-20T01:36:17;6.20;99.90
8459;DHT22;4266;48.816;9.154;2023-12-20T01:38:43;6.20;99.90
8459;DHT22;4266;48.816;9.154;2023-12-20T01:41:09;6.20;99.90
8459;DHT22;4266;48.816;9.154;2023-12-20T01:43:34;6.20;99.90
8459;DHT22;4266;48.816;9.154;2023-12-20T01:46:01;6.10;99.90
8459;DHT22;4266;48.816;9.154;2023-12-20T01:48:27;6.10;99.90
8459;DHT22;4266;48.816;9.154;2023-12-20T01:50:53;6.10;99.90
8459;DHT22;4266;48.816;9.154;2023-12-20T01:53:19;6.00;99.90
8459;DHT22;4266;48.816;9.154;2023-12-20T01:55:44;6.10;99.90
8459;DHT22;4266;48.816;9.154;2023-12-20T01:58:10;6.10;99.90
8459;DHT22;4266;48.816;9.154;2023-12-20T02:00:36;6.00;99.90
8459;DHT22;4266;48.816;9.154;2023-12-20T02:03:01;6.00;99.90
8459;DHT22;4266;48.816;9.154;2023-12-20T02:05:27;6.10;99.90
8459;DHT22;4266;48.816;9.154;2023-12-20T02:07:53;6.10;99.90
8459;DHT22;4266;48.816;9.154;2023-12-20T02:10:18;6.10;99.90
8459;DHT22;4266;48.816;9.154;2023-12-20T02:12:44;6.10;99.90
8459;DHT22;4266;48.816;9.154;2023-12-20T02:15:10;6.20;99.90
8459;DHT22;4266;48.816;9.154;2023-12-20T02:17:36;6.10;99.90
8459;DHT22;4266;48.816;9.154;2023-12-20T02:20:02;6.10;99.90
8459;DHT22;4266;48.816;9.154;2023-12-20T02:22:28;6.10;99.90
8459;DHT22;4266;48.816;9.154;2023-12-20T02:24:53;6.00;99.90
8459;DHT22;4266;48.816;9.154;2023-12-20T02:27:20;6.00;99.90
8459;DHT22;4266;48.816;9.154;2023-12-20T02:29:47;6.00;99.90
8459;DHT22;4266;48.816;9.154;2023-12-20T02:32:11;6.10;99.90
8459;DHT22;4266;48.816;9.154;2023-12-20T02:34:37;6.10;99.90
8459;DHT22;4266;48.816;9.154;2023-12-20T02:37:03;6.00;99.90
8459;DHT22;4266;48.816;9.154;2023-12-20T02:39:29;6.00;99.90
8459;DHT22;4266;48.816;9.154;2023-12-20T02:41:55;5.90;99.90
8459;DHT22;4266;48.816;9.154;2023-12-20T02:44:20;5.90;99.90
8459;DHT22;4266;48.816;9.154;2023-12-20T02:46:46;5.90;99.90
8459;DHT22;4266;48.816;9.154;2023-12-20T02:49:12;6.00;99.90
8459;DHT22;4266;48.816;9.154;2023-12-20T02:51:37;6.10;99.90
8459;DHT22;4266;48.816;9.154;2023-12-20T02:54:04;6.10;99.90
8459;DHT22;4266;48.816;9.154;2023-12-20T02:56:29;6.10;99.90
8459;DHT22;4266;48.816;9.154;2023-12-20T02:58:55;6.10;99.90
8459;DHT22;4266;48.816;9.154;2023-12-20T03:01:21;6.20;99.90
8459;DHT22;4266;48.816;9.154;2023-12-20T03:03:47;6.20;99.90
8459;DHT22;4266;48.816;9.154;2023-12-20T03:06:17;6.20;99.90
8459;DHT22;4266;48.816;9.154;2023-12-20T03:08:42;6.20;99.90
8459;DHT22;4266;48.816;9.154;2023-12-20T03:11:08;6.20;99.90
8459;DHT22;4266;48.816;9.154;2023-12-20T03:13:34;6.20;99.90
8459;DHT22;4266;48.816;9.154;2023-12-20T03:15:59;6.20;99.90
8459;DHT22;4266;48.816;9.154;2023-12-20T03:18:26;6.20;99.90
8459;DHT22;4266;48.816;9.154;2023-12-20T03:20:51;6.20;99.90
8459;DHT22;4266;48.816;9.154;2023-12-20T03:23:17;6.20;99.90
8459;DHT22;4266;48.816;9.154;2023-12-20T03:25:43;6.20;99.90
8459;DHT22;4266;48.816;9.154;2023-12-20T03:28:08;6.20;99.90
8459;DHT22;4266;48.816;9.154;2023-12-20T03:30:34;6.20;99.90
8459;DHT22;4266;48.816;9.154;2023-12-20T03:33:00;6.10;99.90
8459;DHT22;4266;48.816;9.154;2023-12-20T03:35:25;6.10;99.90
8459;DHT22;4266;48.816;9.154;2023-12-20T03:37:51;6.10;99.90
8459;DHT22;4266;48.816;9.154;2023-12-20T03:40:17;6.10;99.90
8459;DHT22;4266;48.816;9.154;2023-12-20T03:42:43;6.00;99.90
8459;DHT22;4266;48.816;9.154;2023-12-20T03:45:09;6.00;99.90
8459;DHT22;4266;48.816;9.154;2023-12-20T03:47:35;6.00;99.90
8459;DHT22;4266;48.816;9.154;2023-12-20T03:50:01;6.00;99.90
8459;DHT22;4266;48.816;9.154;2023-12-20T03:52:27;6.00;99.90
8459;DHT22;4266;48.816;9.154;2023-12-20T03:54:53;6.00;99.90
8459;DHT22;4266;48.816;9.154;2023-12-20T03:57:19;5.90;99.90
8459;DHT22;4266;48.816;9.154;2023-12-20T03:59:45;5.90;99.90
8459;DHT22;4266;48.816;9.154;2023-12-20T04:02:11;5.80;99.90
8459;DHT22;4266;48.816;9.154;2023-12-20T04:04:37;5.90;99.90
8459;DHT22;4266;48.816;9.154;2023-12-20T04:07:03;5.90;99.90
8459;DHT22;4266;48.816;9.154;2023-12-20T04:09:29;5.80;99.90
8459;DHT22;4266;48.816;9.154;2023-12-20T04:11:55;5.80;99.90
8459;DHT22;4266;48.816;9.154;2023-12-20T04:14:21;5.80;99.90
8459;DHT22;4266;48.816;9.154;2023-12-20T04:16:47;5.70;99.90
8459;DHT22;4266;48.816;9.154;2023-12-20T04:19:13;5.70;99.90
8459;DHT22;4266;48.816;9.154;2023-12-20T04:21:39;5.70;99.90
8459;DHT22;4266;48.816;9.154;2023-12-20T04:24:05;5.70;99.90
8459;DHT22;4266;48.816;9.154;2023-12-20T04:26:31;5.70;99.90
8459;DHT22;4266;48.816;9.154;2023-12-20T04:28:57;5.60;99.90
8459;DHT22;4266;48.816;9.154;2023-12-20T04:31:22;5.70;99.90
8459;DHT22;4266;48.816;9.154;2023-12-20T04:33:48;5.70;99.90
8459;DHT22;4266;48.816;9.154;2023-12-20T04:36:13;5.60;99.90
8459;DHT22;4266;48.816;9.154;2023-12-20T04:38:40;5.60;99.90
8459;DHT22;4266;48.816;9.154;2023-12-20T04:41:06;5.50;99.90
8459;DHT22;4266;48.816;9.154;2023-12-20T04:43:31;5.60;99.90
8459;DHT22;4266;48.816;9.154;2023-12-20T04:45:57;5.60;99.90
8459;DHT22;4266;48.816;9.154;2023-12-20T04:48:23;5.60;99.90
8459;DHT22;4266;48.816;9.154;2023-12-20T04:50:48;5.60;99.90
8459;DHT22;4266;48.816;9.154;2023-12-20T04:53:14;5.70;99.90
8459;DHT22;4266;48.816;9.154;2023-12-20T04:55:40;5.70;99.90
8459;DHT22;4266;48.816;9.154;2023-12-20T04:58:06;5.60;99.90
8459;DHT22;4266;48.816;9.154;2023-12-20T05:00:32;5.70;99.90
8459;DHT22;4266;48.816;9.154;2023-12-20T05:02:58;5.60;99.90
8459;DHT22;4266;48.816;9.154;2023-12-20T05:05:24;5.60;99.90
8459;DHT22;4266;48.816;9.154;2023-12-20T05:07:50;5.60;99.90
8459;DHT22;4266;48.816;9.154;2023-12-20T05:10:16;5.60;99.90
8459;DHT22;4266;48.816;9.154;2023-12-20T05:12:41;5.60;99.90
8459;DHT22;4266;48.816;9.154;2023-12-20T05:15:07;5.60;99.90
8459;DHT22;4266;48.816;9.154;2023-12-20T05:17:34;5.70;99.90
8459;DHT22;4266;48.816;9.154;2023-12-20T05:19:59;5.70;99.90
8459;DHT22;4266;48.816;9.154;2023-12-20T05:22:25;5.70;99.90
8459;DHT22;4266;48.816;9.154;2023-12-20T05:24:51;5.70;99.90
8459;DHT22;4266;48.816;9.154;2023-12-20T05:27:17;5.70;99.90
8459;DHT22;4266;48.816;9.154;2023-12-20T05:29:43;5.60;99.90
8459;DHT22;4266;48.816;9.154;2023-12-20T05:32:08;5.60;99.90
8459;DHT22;4266;48.816;9.154;2023-12-20T05:34:34;5.70;99.90
8459;DHT22;4266;48.816;9.154;2023-12-20T05:37:00;5.70;99.90
8459;DHT22;4266;48.816;9.154;2023-12-20T05:39:25;5.70;99.90
8459;DHT22;4266;48.816;9.154;2023-12-20T05:41:51;5.60;99.90
8459;DHT22;4266;48.816;9.154;2023-12-20T05:44:17;5.60;99.90
8459;DHT22;4266;48.816;9.154;2023-12-20T05:46:43;5.70;99.90
8459;DHT22;4266;48.816;9.154;2023-12-20T05:49:09;5.70;99.90
8459;DHT22;4266;48.816;9.154;2023-12-20T05:51:35;5.60;99.90
8459;DHT22;4266;48.816;9.154;2023-12-20T05:54:00;5.60;99.90
8459;DHT22;4266;48.816;9.154;2023-12-20T05:56:26;5.60;99.90
8459;DHT22;4266;48.816;9.154;2023-12-20T05:58:52;5.60;99.90
8459;DHT22;4266;48.816;9.154;2023-12-20T06:01:18;5.60;99.90
8459;DHT22;4266;48.816;9.154;2023-12-20T06:03:44;5.50;99.90
8459;DHT22;4266;48.816;9.154;2023-12-20T06:06:10;5.60;99.90
8459;DHT22;4266;48.816;9.154;2023-12-20T06:08:36;5.60;99.90
8459;DHT22;4266;48.816;9.154;2023-12-20T06:11:02;5.70;99.90
8459;DHT22;4266;48.816;9.154;2023-12-20T06:13:27;5.60;99.90
8459;DHT22;4266;48.816;9.154;2023-12-20T06:15:54;5.60;99.90
8459;DHT22;4266;48.816;9.154;2023-12-20T06:18:19;5.60;99.90
8459;DHT22;4266;48.816;9.154;2023-12-20T06:20:45;5.50;99.90
8459;DHT22;4266;48.816;9.154;2023-12-20T06:23:11;5.60;99.90
8459;DHT22;4266;48.816;9.154;2023-12-20T06:25:36;5.60;99.90
8459;DHT22;4266;48.816;9.154;2023-12-20T06:28:02;5.60;99.90
8459;DHT22;4266;48.816;9.154;2023-12-20T06:30:28;5.70;99.90
8459;DHT22;4266;48.816;9.154;2023-12-20T06:32:55;5.70;99.90
8459;DHT22;4266;48.816;9.154;2023-12-20T06:35:20;5.70;99.90
8459;DHT22;4266;48.816;9.154;2023-12-20T06:37:46;5.70;99.90
8459;DHT22;4266;48.816;9.154;2023-12-20T06:40:12;5.70;99.90
8459;DHT22;4266;48.816;9.154;2023-12-20T06:42:37;5.70;99.90
8459;DHT22;4266;48.816;9.154;2023-12-20T06:45:04;5.70;99.90
8459;DHT22;4266;48.816;9.154;2023-12-20T06:47:30;5.80;99.90
8459;DHT22;4266;48.816;9.154;2023-12-20T06:49:56;5.80;99.90
8459;DHT22;4266;48.816;9.154;2023-12-20T06:52:22;5.80;99.90
8459;DHT22;4266;48.816;9.154;2023-12-20T06:54:47;5.80;99.90
8459;DHT22;4266;48.816;9.154;2023-12-20T06:57:14;5.90;99.90
8459;DHT22;4266;48.816;9.154;2023-12-20T06:59:40;5.90;99.90
8459;DHT22;4266;48.816;9.154;2023-12-20T07:02:05;5.90;99.90
8459;DHT22;4266;48.816;9.154;2023-12-20T07:04:31;5.90;99.90
8459;DHT22;4266;48.816;9.154;2023-12-20T07:06:56;5.90;99.90
8459;DHT22;4266;48.816;9.154;2023-12-20T07:09:22;6.00;99.90
8459;DHT22;4266;48.816;9.154;2023-12-20T07:11:48;6.00;99.90
8459;DHT22;4266;48.816;9.154;2023-12-20T07:14:13;5.90;99.90
8459;DHT22;4266;48.816;9.154;2023-12-20T07:16:39;6.00;99.90
8459;DHT22;4266;48.816;9.154;2023-12-20T07:19:05;5.90;99.90
8459;DHT22;4266;48.816;9.154;2023-12-20T07:21:30;5.90;99.90
8459;DHT22;4266;48.816;9.154;2023-12-20T07:23:57;6.00;99.90
8459;DHT22;4266;48.816;9.154;2023-12-20T07:26:22;6.00;99.90
8459;DHT22;4266;48.816;9.154;2023-12-20T07:28:48;5.90;99.90
8459;DHT22;4266;48.816;9.154;2023-12-20T07:31:15;5.90;99.90
8459;DHT22;4266;48.816;9.154;2023-12-20T07:33:39;5.80;99.90
8459;DHT22;4266;48.816;9.154;2023-12-20T07:36:05;5.80;99.90
8459;DHT22;4266;48.816;9.154;2023-12-20T07:38:31;6.00;99.90
8459;DHT22;4266;48.816;9.154;2023-12-20T07:40:57;6.20;99.90
8459;DHT22;4266;48.816;9.154;2023-12-20T07:43:22;6.00;99.90
8459;DHT22;4266;48.816;9.154;2023-12-20T07:45:48;5.90;99.90
8459;DHT22;4266;48.816;9.154;2023-12-20T07:48:14;5.90;99.90
8459;DHT22;4266;48.816;9.154;2023-12-20T07:50:40;5.90;99.90
8459;DHT22;4266;48.816;9.154;2023-12-20T07:53:06;5.80;99.90
8459;DHT22;4266;48.816;9.154;2023-12-20T07:55:31;5.70;99.90
8459;DHT22;4266;48.816;9.154;2023-12-20T07:57:57;5.70;99.90
8459;DHT22;4266;48.816;9.154;2023-12-20T08:00:23;5.60;99.90
8459;DHT22;4266;48.816;9.154;2023-12-20T08:02:49;5.60;99.90
8459;DHT22;4266;48.816;9.154;2023-12-20T08:05:14;5.90;99.90
8459;DHT22;4266;48.816;9.154;2023-12-20T08:07:40;5.70;99.90
8459;DHT22;4266;48.816;9.154;2023-12-20T08:10:06;5.50;99.90
8459;DHT22;4266;48.816;9.154;2023-12-20T08:12:33;5.40;99.90
8459;DHT22;4266;48.816;9.154;2023-12-20T08:14:58;5.40;99.90
8459;DHT22;4266;48.816;9.154;2023-12-20T08:17:24;5.50;99.90
8459;DHT22;4266;48.816;9.154;2023-12-20T08:19:50;5.40;99.90
8459;DHT22;4266;48.816;9.154;2023-12-20T08:22:16;5.40;99.90
8459;DHT22;4266;48.816;9.154;2023-12-20T08:24:41;5.40;99.90
8459;DHT22;4266;48.816;9.154;2023-12-20T08:27:07;5.40;99.90
8459;DHT22;4266;48.816;9.154;2023-12-20T08:29:32;5.50;99.70
8459;DHT22;4266;48.816;9.154;2023-12-20T08:31:58;5.40;99.70
8459;DHT22;4266;48.816;9.154;2023-12-20T08:34:25;5.40;99.30
8459;DHT22;4266;48.816;9.154;2023-12-20T08:36:50;5.40;99.30
8459;DHT22;4266;48.816;9.154;2023-12-20T08:39:17;5.40;98.90
8459;DHT22;4266;48.816;9.154;2023-12-20T08:41:42;5.40;98.90
8459;DHT22;4266;48.816;9.154;2023-12-20T08:44:09;5.60;98.00
8459;DHT22;4266;48.816;9.154;2023-12-20T08:46:34;5.60;98.00
8459;DHT22;4266;48.816;9.154;2023-12-20T08:49:00;6.40;96.70
8459;DHT22;4266;48.816;9.154;2023-12-20T08:51:26;9.50;91.80
8459;DHT22;4266;48.816;9.154;2023-12-20T08:53:51;11.60;85.20
8459;DHT22;4266;48.816;9.154;2023-12-20T08:56:18;14.10;75.00
8459;DHT22;4266;48.816;9.154;2023-12-20T08:58:44;14.10;75.00
8459;DHT22;4266;48.816;9.154;2023-12-20T09:01:09;14.60;68.80
8459;DHT22;4266;48.816;9.154;2023-12-20T09:03:35;14.70;66.90
8459;DHT22;4266;48.816;9.154;2023-12-20T09:06:00;14.90;65.10
8459;DHT22;4266;48.816;9.154;2023-12-20T09:08:26;15.40;63.50
8459;DHT22;4266;48.816;9.154;2023-12-20T09:10:52;17.00;60.70
8459;DHT22;4266;48.816;9.154;2023-12-20T09:13:17;17.50;57.50
8459;DHT22;4266;48.816;9.154;2023-12-20T09:15:43;17.80;56.40
8459;DHT22;4266;48.816;9.154;2023-12-20T09:18:08;17.10;55.90
8459;DHT22;4266;48.816;9.154;2023-12-20T09:20:34;17.50;54.30
8459;DHT22;4266;48.816;9.154;2023-12-20T09:23:01;18.10;53.30
8459;DHT22;4266;48.816;9.154;2023-12-20T09:25:26;18.00;53.50
8459;DHT22;4266;48.816;9.154;2023-12-20T09:27:52;18.30;52.30
8459;DHT22;4266;48.816;9.154;2023-12-20T09:30:18;18.60;51.40
8459;DHT22;4266;48.816;9.154;2023-12-20T09:32:43;20.60;50.40
8459;DHT22;4266;48.816;9.154;2023-12-20T09:35:09;21.20;48.80
8459;DHT22;4266;48.816;9.154;2023-12-20T09:37:35;21.00;47.60
8459;DHT22;4266;48.816;9.154;2023-12-20T09:40:00;20.40;46.30
8459;DHT22;4266;48.816;9.154;2023-12-20T09:42:32;20.40;47.10
8459;DHT22;4266;48.816;9.154;2023-12-20T09:44:55;22.00;45.70
8459;DHT22;4266;48.816;9.154;2023-12-20T09:47:21;21.90;45.30
8459;DHT22;4266;48.816;9.154;2023-12-20T09:49:47;22.00;44.40
8459;DHT22;4266;48.816;9.154;2023-12-20T09:52:12;21.50;44.30
8459;DHT22;4266;48.816;9.154;2023-12-20T09:54:38;22.00;44.60
8459;DHT22;4266;48.816;9.154;2023-12-20T09:57:04;22.90;42.70
8459;DHT22;4266;48.816;9.154;2023-12-20T09:59:30;22.90;42.70
8459;DHT22;4266;48.816;9.154;2023-12-20T10:01:56;22.70;42.30
8459;DHT22;4266;48.816;9.154;2023-12-20T10:04:22;22.90;41.80
8459;DHT22;4266;48.816;9.154;2023-12-20T10:06:48;22.70;41.90
8459;DHT22;4266;48.816;9.154;2023-12-20T10:09:14;21.70;41.90
8459;DHT22;4266;48.816;9.154;2023-12-20T10:11:39;21.70;41.40
8459;DHT22;4266;48.816;9.154;2023-12-20T10:14:05;19.10;42.00
8459;DHT22;4266;48.816;9.154;2023-12-20T10:16:31;17.70;41.60
8459;DHT22;4266;48.816;9.154;2023-12-20T10:18:56;17.30;42.10
8459;DHT22;4266;48.816;9.154;2023-12-20T10:21:22;15.10;43.00
8459;DHT22;4266;48.816;9.154;2023-12-20T10:23:49;13.90;43.70
8459;DHT22;4266;48.816;9.154;2023-12-20T10:26:19;12.50;44.80
8459;DHT22;4266;48.816;9.154;2023-12-20T10:28:45;11.50;45.80
8459;DHT22;4266;48.816;9.154;2023-12-20T10:31:10;10.90;46.20
8459;DHT22;4266;48.816;9.154;2023-12-20T10:33:36;10.80;48.00
8459;DHT22;4266;48.816;9.154;2023-12-20T10:36:02;10.40;48.50
8459;DHT22;4266;48.816;9.154;2023-12-20T10:38:28;10.00;49.10
8459;DHT22;4266;48.816;9.154;2023-12-20T10:40:56;9.60;51.30
8459;DHT22;4266;48.816;9.154;2023-12-20T10:43:20;9.60;51.30
8459;DHT22;4266;48.816;9.154;2023-12-20T10:45:45;9.60;51.40
8459;DHT22;4266;48.816;9.154;2023-12-20T10:48:11;9.50;52.50
8459;DHT22;4266;48.816;9.154;2023-12-20T10:50:38;9.30;52.70
8459;DHT22;4266;48.816;9.154;2023-12-20T10:53:04;9.20;52.60
8459;DHT22;4266;48.816;9.154;2023-12-20T10:55:31;9.10;53.20
8459;DHT22;4266;48.816;9.154;2023-12-20T10:58:01;9.10;53.20
8459;DHT22;4266;48.816;9.154;2023-12-20T11:00:26;9.00;52.50
8459;DHT22;4266;48.816;9.154;2023-12-20T11:02:51;9.10;54.00
8459;DHT22;4266;48.816;9.154;2023-12-20T11:05:22;9.90;52.20
8459;DHT22;4266;48.816;9.154;2023-12-20T11:07:50;9.90;52.20
8459;DHT22;4266;48.816;9.154;2023-12-20T11:10:19;9.80;53.10
8459;DHT22;4266;48.816;9.154;2023-12-20T11:12:52;10.30;51.60
8459;DHT22;4266;48.816;9.154;2023-12-20T11:15:17;10.10;51.60
8459;DHT22;4266;48.816;9.154;2023-12-20T11:17:44;9.70;52.70
8459;DHT22;4266;48.816;9.154;2023-12-20T11:20:09;9.20;53.30
8459;DHT22;4266;48.816;9.154;2023-12-20T11:22:36;8.50;53.30
8459;DHT22;4266;48.816;9.154;2023-12-20T11:25:06;8.50;53.30
8459;DHT22;4266;48.816;9.154;2023-12-20T11:27:31;8.30;53.50
8459;DHT22;4266;48.816;9.154;2023-12-20T11:29:57;8.10;53.60
8459;DHT22;4266;48.816;9.154;2023-12-20T11:32:27;7.90;54.60
8459;DHT22;4266;48.816;9.154;2023-12-20T11:34:58;7.80;54.30
8459;DHT22;4266;48.816;9.154;2023-12-20T11:37:29;7.70;54.80
8459;DHT22;4266;48.816;9.154;2023-12-20T11:39:55;7.60;54.30
8459;DHT22;4266;48.816;9.154;2023-12-20T11:42:21;7.60;54.90
8459;DHT22;4266;48.816;9.154;2023-12-20T11:44:47;7.60;54.90
8459;DHT22;4266;48.816;9.154;2023-12-20T11:47:13;7.50;55.40
8459;DHT22;4266;48.816;9.154;2023-12-20T11:49:39;7.60;55.60
8459;DHT22;4266;48.816;9.154;2023-12-20T11:52:05;7.50;55.50
8459;DHT22;4266;48.816;9.154;2023-12-20T11:54:30;7.10;55.60
8459;DHT22;4266;48.816;9.154;2023-12-20T11:56:56;7.20;55.40
8459;DHT22;4266;48.816;9.154;2023-12-20T11:59:23;7.10;55.70
8459;DHT22;4266;48.816;9.154;2023-12-20T12:01:48;7.10;55.70
8459;DHT22;4266;48.816;9.154;2023-12-20T12:04:14;7.10;56.00
8459;DHT22;4266;48.816;9.154;2023-12-20T12:06:39;7.10;56.30
8459;DHT22;4266;48.816;9.154;2023-12-20T12:09:05;7.20;56.00
8459;DHT22;4266;48.816;9.154;2023-12-20T12:11:31;7.10;56.20
8459;DHT22;4266;48.816;9.154;2023-12-20T12:13:56;7.10;56.20
8459;DHT22;4266;48.816;9.154;2023-12-20T12:16:22;7.10;56.10
8459;DHT22;4266;48.816;9.154;2023-12-20T12:18:56;7.40;57.10
8459;DHT22;4266;48.816;9.154;2023-12-20T12:21:21;7.50;56.50
8459;DHT22;4266;48.816;9.154;2023-12-20T12:23:47;7.50;56.70
8459;DHT22;4266;48.816;9.154;2023-12-20T12:26:13;7.60;57.60
8459;DHT22;4266;48.816;9.154;2023-12-20T12:28:40;7.60;56.30
8459;DHT22;4266;48.816;9.154;2023-12-20T12:31:05;7.60;56.30
8459;DHT22;4266;48.816;9.154;2023-12-20T12:33:31;7.60;56.30
8459;DHT22;4266;48.816;9.154;2023-12-20T12:35:56;9.40;55.40
8459;DHT22;4266;48.816;9.154;2023-12-20T12:38:22;8.70;54.30
8459;DHT22;4266;48.816;9.154;2023-12-20T12:40:49;8.20;54.80
8459;DHT22;4266;48.816;9.154;2023-12-20T12:43:13;9.10;55.80
8459;DHT22;4266;48.816;9.154;2023-12-20T12:45:39;10.50;53.50
8459;DHT22;4266;48.816;9.154;2023-12-20T12:48:05;11.10;52.00
8459;DHT22;4266;48.816;9.154;2023-12-20T12:50:32;9.20;53.40
8459;DHT22;4266;48.816;9.154;2023-12-20T12:52:58;9.20;53.30
8459;DHT22;4266;48.816;9.154;2023-12-20T12:55:24;8.90;54.10
8459;DHT22;4266;48.816;9.154;2023-12-20T12:57:49;8.50;54.30
8459;DHT22;4266;48.816;9.154;2023-12-20T13:00:15;8.30;55.40
8459;DHT22;4266;48.816;9.154;2023-12-20T13:02:41;8.00;55.30
8459;DHT22;4266;48.816;9.154;2023-12-20T13:05:08;7.90;55.70
8459;DHT22;4266;48.816;9.154;2023-12-20T13:07:34;7.90;55.70
8459;DHT22;4266;48.816;9.154;2023-12-20T13:10:00;8.10;55.50
8459;DHT22;4266;48.816;9.154;2023-12-20T13:12:26;7.80;54.80
8459;DHT22;4266;48.816;9.154;2023-12-20T13:14:51;7.80;55.20
8459;DHT22;4266;48.816;9.154;2023-12-20T13:17:17;7.50;55.30
8459;DHT22;4266;48.816;9.154;2023-12-20T13:19:42;8.30;55.70
8459;DHT22;4266;48.816;9.154;2023-12-20T13:22:08;8.10;54.90
8459;DHT22;4266;48.816;9.154;2023-12-20T13:24:34;9.60;54.20
8459;DHT22;4266;48.816;9.154;2023-12-20T13:26:59;11.30;52.50
8459;DHT22;4266;48.816;9.154;2023-12-20T13:29:25;11.10;52.10
8459;DHT22;4266;48.816;9.154;2023-12-20T13:31:53;10.70;51.50
8459;DHT22;4266;48.816;9.154;2023-12-20T13:34:26;10.70;51.50
8459;DHT22;4266;48.816;9.154;2023-12-20T13:36:52;11.20;51.10
8459;DHT22;4266;48.816;9.154;2023-12-20T13:39:17;10.40;51.30
8459;DHT22;4266;48.816;9.154;2023-12-20T13:41:43;9.30;52.70
8459;DHT22;4266;48.816;9.154;2023-12-20T13:44:09;8.80;53.20
8459;DHT22;4266;48.816;9.154;2023-12-20T13:46:35;8.40;53.70
8459;DHT22;4266;48.816;9.154;2023-12-20T13:49:07;8.30;54.20
8459;DHT22;4266;48.816;9.154;2023-12-20T13:51:33;8.10;54.50
8459;DHT22;4266;48.816;9.154;2023-12-20T13:53:58;7.90;55.30
8459;DHT22;4266;48.816;9.154;2023-12-20T13:56:25;7.60;55.70
8459;DHT22;4266;48.816;9.154;2023-12-20T13:58:50;7.50;55.90
8459;DHT22;4266;48.816;9.154;2023-12-20T14:01:16;7.30;56.70
8459;DHT22;4266;48.816;9.154;2023-12-20T14:03:41;7.20;56.90
8459;DHT22;4266;48.816;9.154;2023-12-20T14:06:07;7.10;57.10
8459;DHT22;4266;48.816;9.154;2023-12-20T14:08:33;7.00;57.00
8459;DHT22;4266;48.816;9.154;2023-12-20T14:10:59;7.10;57.40
8459;DHT22;4266;48.816;9.154;2023-12-20T14:13:24;7.00;57.10
8459;DHT22;4266;48.816;9.154;2023-12-20T14:15:50;6.90;57.70
8459;DHT22;4266;48.816;9.154;2023-12-20T14:18:15;6.80;57.80
8459;DHT22;4266;48.816;9.154;2023-12-20T14:20:41;6.80;58.60
8459;DHT22;4266;48.816;9.154;2023-12-20T14:23:07;6.80;59.30
8459;DHT22;4266;48.816;9.154;2023-12-20T14:25:32;6.60;59.30
8459;DHT22;4266;48.816;9.154;2023-12-20T14:27:58;6.60;59.60
8459;DHT22;4266;48.816;9.154;2023-12-20T14:30:24;6.50;59.60
8459;DHT22;4266;48.816;9.154;2023-12-20T14:32:50;6.40;61.50
8459;DHT22;4266;48.816;9.154;2023-12-20T14:35:15;6.40;61.90
8459;DHT22;4266;48.816;9.154;2023-12-20T14:37:42;6.10;65.40
8459;DHT22;4266;48.816;9.154;2023-12-20T14:40:08;6.10;65.40
8459;DHT22;4266;48.816;9.154;2023-12-20T14:42:35;6.10;65.30
8459;DHT22;4266;48.816;9.154;2023-12-20T14:45:00;6.10;65.90
8459;DHT22;4266;48.816;9.154;2023-12-20T14:47:26;6.20;66.30
8459;DHT22;4266;48.816;9.154;2023-12-20T14:49:52;6.20;66.70
8459;DHT22;4266;48.816;9.154;2023-12-20T14:52:18;6.10;68.10
8459;DHT22;4266;48.816;9.154;2023-12-20T14:54:44;6.10;68.10
8459;DHT22;4266;48.816;9.154;2023-12-20T14:57:10;6.10;70.60
8459;DHT22;4266;48.816;9.154;2023-12-20T14:59:36;6.10;70.20
8459;DHT22;4266;48.816;9.154;2023-12-20T15:02:01;6.10;72.10
8459;DHT22;4266;48.816;9.154;2023-12-20T15:04:28;6.10;71.80
8459;DHT22;4266;48.816;9.154;2023-12-20T15:06:54;5.90;73.50
8459;DHT22;4266;48.816;9.154;2023-12-20T15:09:20;5.90;74.10
8459;DHT22;4266;48.816;9.154;2023-12-20T15:11:45;5.90;74.60
8459;DHT22;4266;48.816;9.154;2023-12-20T15:14:12;5.80;77.20
8459;DHT22;4266;48.816;9.154;2023-12-20T15:16:37;5.80;77.20
8459;DHT22;4266;48.816;9.154;2023-12-20T15:19:03;5.80;78.90
8459;DHT22;4266;48.816;9.154;2023-12-20T15:21:32;5.90;77.50
8459;DHT22;4266;48.816;9.154;2023-12-20T15:23:59;5.80;79.60
8459;DHT22;4266;48.816;9.154;2023-12-20T15:26:32;5.90;78.90
8459;DHT22;4266;48.816;9.154;2023-12-20T15:28:57;5.90;79.00
8459;DHT22;4266;48.816;9.154;2023-12-20T15:31:23;5.90;78.40
8459;DHT22;4266;48.816;9.154;2023-12-20T15:33:49;5.80;78.00
8459;DHT22;4266;48.816;9.154;2023-12-20T15:36:14;5.90;79.30
8459;DHT22;4266;48.816;9.154;2023-12-20T15:38:40;5.80;78.40
8459;DHT22;4266;48.816;9.154;2023-12-20T15:41:07;5.80;79.40
8459;DHT22;4266;48.816;9.154;2023-12-20T15:43:33;5.80;78.40
8459;DHT22;4266;48.816;9.154;2023-12-20T15:45:59;5.80;78.40
8459;DHT22;4266;48.816;9.154;2023-12-20T15:48:25;5.90;78.80
8459;DHT22;4266;48.816;9.154;2023-12-20T15:50:51;5.80;78.70
8459;DHT22;4266;48.816;9.154;2023-12-20T15:53:16;5.90;78.90
8459;DHT22;4266;48.816;9.154;2023-12-20T15:55:42;5.80;78.60
8459;DHT22;4266;48.816;9.154;2023-12-20T15:58:08;5.70;79.50
8459;DHT22;4266;48.816;9.154;2023-12-20T16:00:33;5.70;81.00
8459;DHT22;4266;48.816;9.154;2023-12-20T16:02:59;5.80;81.60
8459;DHT22;4266;48.816;9.154;2023-12-20T16:05:25;5.60;82.00